sensor_id;sensor_type;location;lat;lon;timestamp;P1;durP1;ratioP1;P2;durP2;ratioP2
66342;SDS011;53144;51.524;5.080;2023-08-21T00:00:42;5.15;;;1.85;;
66342;SDS011;53144;51.524;5.080;2023-08-21T00:03:07;6.20;;;1.90;;
66342;SDS011;53144;51.524;5.080;2023-08-21T00:05:33;7.10;;;2.05;;
66342;SDS011;53144;51.524;5.080;2023-08-21T00:07:58;10.70;;;2.17;;
66342;SDS011;53144;51.524;5.080;2023-08-21T00:10:24;8.55;;;1.50;;
66342;SDS011;53144;51.524;5.080;2023-08-21T00:12:49;4.22;;;1.75;;
66342;SDS011;53144;51.524;5.080;2023-08-21T00:15:14;4.28;;;1.75;;
66342;SDS011;53144;51.524;5.080;2023-08-21T00:17:40;4.70;;;1.98;;
66342;SDS011;53144;51.524;5.080;2023-08-21T00:20:05;6.35;;;1.83;;
66342;SDS011;53144;51.524;5.080;2023-08-21T00:22:34;6.50;;;1.90;;
66342;SDS011;53144;51.524;5.080;2023-08-21T00:25:00;6.72;;;1.70;;
66342;SDS011;53144;51.524;5.080;2023-08-21T00:27:25;11.10;;;2.50;;
66342;SDS011;53144;51.524;5.080;2023-08-21T00:29:51;12.10;;;2.25;;
66342;SDS011;53144;51.524;5.080;2023-08-21T00:32:16;6.75;;;2.17;;
66342;SDS011;53144;51.524;5.080;2023-08-21T00:34:42;7.28;;;1.67;;
66342;SDS011;53144;51.524;5.080;2023-08-21T00:37:07;3.63;;;1.85;;
66342;SDS011;53144;51.524;5.080;2023-08-21T00:39:33;5.50;;;1.70;;
66342;SDS011;53144;51.524;5.080;2023-08-21T00:41:58;6.55;;;1.90;;
66342;SDS011;53144;51.524;5.080;2023-08-21T00:44:23;5.07;;;1.83;;
66342;SDS011;53144;51.524;5.080;2023-08-21T00:46:49;5.75;;;2.50;;
66342;SDS011;53144;51.524;5.080;2023-08-21T00:49:14;6.68;;;2.55;;
66342;SDS011;53144;51.524;5.080;2023-08-21T00:51:40;7.20;;;2.67;;
66342;SDS011;53144;51.524;5.080;2023-08-21T00:54:05;8.65;;;3.03;;
66342;SDS011;53144;51.524;5.080;2023-08-21T00:56:31;8.93;;;2.70;;
66342;SDS011;53144;51.524;5.080;2023-08-21T00:58:56;8.27;;;2.75;;
66342;SDS011;53144;51.524;5.080;2023-08-21T01:01:23;7.30;;;2.70;;
66342;SDS011;53144;51.524;5.080;2023-08-21T01:03:52;7.57;;;2.45;;
66342;SDS011;53144;51.524;5.080;2023-08-21T01:06:18;7.75;;;2.90;;
66342;SDS011;53144;51.524;5.080;2023-08-21T01:08:57;8.63;;;2.70;;
66342;SDS011;53144;51.524;5.080;2023-08-21T01:14:29;13.57;;;3.38;;
66342;SDS011;53144;51.524;5.080;2023-08-21T01:17:02;7.63;;;3.08;;
66342;SDS011;53144;51.524;5.080;2023-08-21T01:19:42;6.38;;;3.05;;
66342;SDS011;53144;51.524;5.080;2023-08-21T01:22:08;6.60;;;2.80;;
66342;SDS011;53144;51.524;5.080;2023-08-21T01:24:34;7.00;;;2.85;;
66342;SDS011;53144;51.524;5.080;2023-08-21T01:27:00;6.43;;;2.63;;
66342;SDS011;53144;51.524;5.080;2023-08-21T01:29:25;6.30;;;2.90;;
66342;SDS011;53144;51.524;5.080;2023-08-21T01:31:58;12.48;;;3.20;;
66342;SDS011;53144;51.524;5.080;2023-08-21T01:34:41;9.70;;;2.70;;
66342;SDS011;53144;51.524;5.080;2023-08-21T01:37:07;7.80;;;2.88;;
66342;SDS011;53144;51.524;5.080;2023-08-21T01:39:33;7.63;;;2.33;;
66342;SDS011;53144;51.524;5.080;2023-08-21T01:41:59;8.25;;;2.95;;
66342;SDS011;53144;51.524;5.080;2023-08-21T01:44:24;9.65;;;2.70;;
66342;SDS011;53144;51.524;5.080;2023-08-21T01:46:51;6.40;;;2.35;;
66342;SDS011;53144;51.524;5.080;2023-08-21T01:49:17;5.72;;;2.40;;
66342;SDS011;53144;51.524;5.080;2023-08-21T01:51:44;6.32;;;2.38;;
66342;SDS011;53144;51.524;5.080;2023-08-21T01:54:09;6.65;;;2.55;;
66342;SDS011;53144;51.524;5.080;2023-08-21T01:56:35;6.80;;;2.15;;
66342;SDS011;53144;51.524;5.080;2023-08-21T01:59:01;5.68;;;2.20;;
66342;SDS011;53144;51.524;5.080;2023-08-21T02:01:27;8.20;;;2.35;;
66342;SDS011;53144;51.524;5.080;2023-08-21T02:03:52;6.30;;;2.20;;
66342;SDS011;53144;51.524;5.080;2023-08-21T02:06:18;7.90;;;2.50;;
66342;SDS011;53144;51.524;5.080;2023-08-21T02:08:43;5.45;;;2.45;;
66342;SDS011;53144;51.524;5.080;2023-08-21T02:11:08;8.48;;;2.13;;
66342;SDS011;53144;51.524;5.080;2023-08-21T02:13:34;6.97;;;2.33;;
66342;SDS011;53144;51.524;5.080;2023-08-21T02:15:59;4.95;;;2.45;;
66342;SDS011;53144;51.524;5.080;2023-08-21T02:18:25;5.97;;;2.13;;
66342;SDS011;53144;51.524;5.080;2023-08-21T02:20:50;5.97;;;2.22;;
66342;SDS011;53144;51.524;5.080;2023-08-21T02:23:16;4.28;;;2.40;;
66342;SDS011;53144;51.524;5.080;2023-08-21T02:25:41;5.78;;;2.03;;
66342;SDS011;53144;51.524;5.080;2023-08-21T02:28:07;5.88;;;2.10;;
66342;SDS011;53144;51.524;5.080;2023-08-21T02:30:32;5.03;;;2.00;;
66342;SDS011;53144;51.524;5.080;2023-08-21T02:32:58;5.57;;;2.05;;
66342;SDS011;53144;51.524;5.080;2023-08-21T02:35:23;6.05;;;1.98;;
66342;SDS011;53144;51.524;5.080;2023-08-21T02:37:49;5.03;;;2.30;;
66342;SDS011;53144;51.524;5.080;2023-08-21T02:40:14;3.78;;;2.03;;
66342;SDS011;53144;51.524;5.080;2023-08-21T02:42:40;2.47;;;2.10;;
66342;SDS011;53144;51.524;5.080;2023-08-21T02:45:06;6.22;;;2.25;;
66342;SDS011;53144;51.524;5.080;2023-08-21T02:47:37;5.45;;;2.10;;
66342;SDS011;53144;51.524;5.080;2023-08-21T02:50:04;8.85;;;2.20;;
66342;SDS011;53144;51.524;5.080;2023-08-21T02:52:31;6.95;;;2.00;;
66342;SDS011;53144;51.524;5.080;2023-08-21T02:54:57;7.70;;;2.05;;
66342;SDS011;53144;51.524;5.080;2023-08-21T02:57:23;4.05;;;1.90;;
66342;SDS011;53144;51.524;5.080;2023-08-21T02:59:49;8.10;;;2.20;;
66342;SDS011;53144;51.524;5.080;2023-08-21T03:02:15;4.25;;;1.80;;
66342;SDS011;53144;51.524;5.080;2023-08-21T03:04:40;4.40;;;1.88;;
66342;SDS011;53144;51.524;5.080;2023-08-21T03:07:06;9.65;;;2.33;;
66342;SDS011;53144;51.524;5.080;2023-08-21T03:09:31;5.93;;;2.55;;
66342;SDS011;53144;51.524;5.080;2023-08-21T03:11:56;5.68;;;2.33;;
66342;SDS011;53144;51.524;5.080;2023-08-21T03:14:22;5.03;;;2.03;;
66342;SDS011;53144;51.524;5.080;2023-08-21T03:16:47;11.25;;;2.20;;
66342;SDS011;53144;51.524;5.080;2023-08-21T03:19:13;6.10;;;2.67;;
66342;SDS011;53144;51.524;5.080;2023-08-21T03:21:38;3.58;;;2.10;;
66342;SDS011;53144;51.524;5.080;2023-08-21T03:24:05;7.72;;;2.28;;
66342;SDS011;53144;51.524;5.080;2023-08-21T03:26:31;5.32;;;2.17;;
66342;SDS011;53144;51.524;5.080;2023-08-21T03:28:56;6.80;;;2.33;;
66342;SDS011;53144;51.524;5.080;2023-08-21T03:31:22;6.65;;;2.53;;
66342;SDS011;53144;51.524;5.080;2023-08-21T03:33:47;5.97;;;2.03;;
66342;SDS011;53144;51.524;5.080;2023-08-21T03:36:13;5.72;;;2.22;;
66342;SDS011;53144;51.524;5.080;2023-08-21T03:38:38;6.05;;;2.30;;
66342;SDS011;53144;51.524;5.080;2023-08-21T03:41:03;6.45;;;2.00;;
66342;SDS011;53144;51.524;5.080;2023-08-21T03:43:30;5.60;;;2.20;;
66342;SDS011;53144;51.524;5.080;2023-08-21T03:45:56;3.72;;;2.17;;
66342;SDS011;53144;51.524;5.080;2023-08-21T03:48:21;5.30;;;1.90;;
66342;SDS011;53144;51.524;5.080;2023-08-21T03:50:48;4.07;;;1.92;;
66342;SDS011;53144;51.524;5.080;2023-08-21T03:53:14;4.97;;;1.95;;
66342;SDS011;53144;51.524;5.080;2023-08-21T03:55:39;2.97;;;2.03;;
66342;SDS011;53144;51.524;5.080;2023-08-21T03:58:05;5.43;;;2.13;;
66342;SDS011;53144;51.524;5.080;2023-08-21T04:00:30;6.82;;;1.85;;
66342;SDS011;53144;51.524;5.080;2023-08-21T04:02:56;4.95;;;2.15;;
66342;SDS011;53144;51.524;5.080;2023-08-21T04:05:22;5.72;;;2.20;;
66342;SDS011;53144;51.524;5.080;2023-08-21T04:07:47;6.78;;;1.90;;
66342;SDS011;53144;51.524;5.080;2023-08-21T04:10:13;5.20;;;2.10;;
66342;SDS011;53144;51.524;5.080;2023-08-21T04:12:38;3.65;;;1.80;;
66342;SDS011;53144;51.524;5.080;2023-08-21T04:15:04;5.78;;;2.10;;
66342;SDS011;53144;51.524;5.080;2023-08-21T04:17:31;4.93;;;1.95;;
66342;SDS011;53144;51.524;5.080;2023-08-21T04:19:56;5.68;;;2.00;;
66342;SDS011;53144;51.524;5.080;2023-08-21T04:22:22;5.53;;;1.90;;
66342;SDS011;53144;51.524;5.080;2023-08-21T04:24:47;7.60;;;2.25;;
66342;SDS011;53144;51.524;5.080;2023-08-21T04:27:13;2.63;;;1.80;;
66342;SDS011;53144;51.524;5.080;2023-08-21T04:29:39;4.18;;;1.80;;
66342;SDS011;53144;51.524;5.080;2023-08-21T04:32:04;3.78;;;2.00;;
66342;SDS011;53144;51.524;5.080;2023-08-21T04:34:34;5.03;;;2.00;;
66342;SDS011;53144;51.524;5.080;2023-08-21T04:37:00;3.70;;;1.95;;
66342;SDS011;53144;51.524;5.080;2023-08-21T04:39:26;5.32;;;1.90;;
66342;SDS011;53144;51.524;5.080;2023-08-21T04:41:51;4.45;;;1.95;;
66342;SDS011;53144;51.524;5.080;2023-08-21T04:44:17;5.35;;;1.98;;
66342;SDS011;53144;51.524;5.080;2023-08-21T04:46:43;6.95;;;2.22;;
66342;SDS011;53144;51.524;5.080;2023-08-21T04:49:08;5.80;;;2.40;;
66342;SDS011;53144;51.524;5.080;2023-08-21T04:51:34;3.90;;;1.95;;
66342;SDS011;53144;51.524;5.080;2023-08-21T04:53:59;5.38;;;2.67;;
66342;SDS011;53144;51.524;5.080;2023-08-21T04:56:25;4.82;;;2.50;;
66342;SDS011;53144;51.524;5.080;2023-08-21T04:58:51;6.68;;;2.33;;
66342;SDS011;53144;51.524;5.080;2023-08-21T05:01:17;5.78;;;2.40;;
66342;SDS011;53144;51.524;5.080;2023-08-21T05:03:43;6.25;;;2.40;;
66342;SDS011;53144;51.524;5.080;2023-08-21T05:06:08;4.95;;;2.30;;
66342;SDS011;53144;51.524;5.080;2023-08-21T05:08:34;7.03;;;2.33;;
66342;SDS011;53144;51.524;5.080;2023-08-21T05:10:59;5.63;;;2.20;;
66342;SDS011;53144;51.524;5.080;2023-08-21T05:13:25;5.40;;;2.00;;
66342;SDS011;53144;51.524;5.080;2023-08-21T05:15:51;4.03;;;1.98;;
66342;SDS011;53144;51.524;5.080;2023-08-21T05:18:19;4.07;;;2.00;;
66342;SDS011;53144;51.524;5.080;2023-08-21T05:20:44;5.00;;;2.20;;
66342;SDS011;53144;51.524;5.080;2023-08-21T05:23:09;6.57;;;2.13;;
66342;SDS011;53144;51.524;5.080;2023-08-21T05:25:35;5.22;;;2.33;;
66342;SDS011;53144;51.524;5.080;2023-08-21T05:28:00;6.28;;;2.65;;
66342;SDS011;53144;51.524;5.080;2023-08-21T05:30:26;6.32;;;2.20;;
66342;SDS011;53144;51.524;5.080;2023-08-21T05:32:52;6.10;;;2.03;;
66342;SDS011;53144;51.524;5.080;2023-08-21T05:35:17;4.18;;;2.70;;
66342;SDS011;53144;51.524;5.080;2023-08-21T05:37:43;5.28;;;2.60;;
66342;SDS011;53144;51.524;5.080;2023-08-21T05:40:08;6.30;;;2.70;;
66342;SDS011;53144;51.524;5.080;2023-08-21T05:42:34;4.90;;;3.10;;
66342;SDS011;53144;51.524;5.080;2023-08-21T05:44:59;7.10;;;3.72;;
66342;SDS011;53144;51.524;5.080;2023-08-21T05:47:24;8.57;;;3.78;;
66342;SDS011;53144;51.524;5.080;2023-08-21T05:49:51;6.75;;;3.75;;
66342;SDS011;53144;51.524;5.080;2023-08-21T05:52:18;7.38;;;3.88;;
66342;SDS011;53144;51.524;5.080;2023-08-21T05:54:43;9.93;;;4.28;;
66342;SDS011;53144;51.524;5.080;2023-08-21T05:57:09;8.70;;;4.50;;
66342;SDS011;53144;51.524;5.080;2023-08-21T05:59:34;7.93;;;3.78;;
66342;SDS011;53144;51.524;5.080;2023-08-21T06:02:00;8.20;;;3.80;;
66342;SDS011;53144;51.524;5.080;2023-08-21T06:04:26;7.53;;;3.92;;
66342;SDS011;53144;51.524;5.080;2023-08-21T06:06:52;7.82;;;4.07;;
66342;SDS011;53144;51.524;5.080;2023-08-21T06:09:18;7.93;;;4.57;;
66342;SDS011;53144;51.524;5.080;2023-08-21T06:11:44;6.88;;;4.07;;
66342;SDS011;53144;51.524;5.080;2023-08-21T06:14:09;6.07;;;4.10;;
66342;SDS011;53144;51.524;5.080;2023-08-21T06:16:35;9.30;;;4.65;;
66342;SDS011;53144;51.524;5.080;2023-08-21T06:19:00;9.57;;;4.10;;
66342;SDS011;53144;51.524;5.080;2023-08-21T06:21:26;10.43;;;4.43;;
66342;SDS011;53144;51.524;5.080;2023-08-21T06:23:51;6.32;;;4.50;;
66342;SDS011;53144;51.524;5.080;2023-08-21T06:26:16;7.60;;;4.22;;
66342;SDS011;53144;51.524;5.080;2023-08-21T06:28:42;10.30;;;4.93;;
66342;SDS011;53144;51.524;5.080;2023-08-21T06:31:08;11.48;;;4.65;;
66342;SDS011;53144;51.524;5.080;2023-08-21T06:33:33;8.68;;;4.28;;
66342;SDS011;53144;51.524;5.080;2023-08-21T06:35:59;8.65;;;4.63;;
66342;SDS011;53144;51.524;5.080;2023-08-21T06:38:24;8.13;;;4.75;;
66342;SDS011;53144;51.524;5.080;2023-08-21T06:40:50;7.85;;;5.32;;
66342;SDS011;53144;51.524;5.080;2023-08-21T06:43:16;10.25;;;5.38;;
66342;SDS011;53144;51.524;5.080;2023-08-21T06:45:42;8.80;;;5.60;;
66342;SDS011;53144;51.524;5.080;2023-08-21T06:48:07;6.75;;;4.95;;
66342;SDS011;53144;51.524;5.080;2023-08-21T06:50:32;11.20;;;5.47;;
66342;SDS011;53144;51.524;5.080;2023-08-21T06:52:58;8.90;;;5.55;;
66342;SDS011;53144;51.524;5.080;2023-08-21T06:55:23;10.95;;;5.50;;
66342;SDS011;53144;51.524;5.080;2023-08-21T06:57:48;8.15;;;5.10;;
66342;SDS011;53144;51.524;5.080;2023-08-21T07:00:14;10.82;;;5.43;;
66342;SDS011;53144;51.524;5.080;2023-08-21T07:02:39;11.43;;;5.32;;
66342;SDS011;53144;51.524;5.080;2023-08-21T07:05:05;9.95;;;6.00;;
66342;SDS011;53144;51.524;5.080;2023-08-21T07:07:30;10.73;;;5.50;;
66342;SDS011;53144;51.524;5.080;2023-08-21T07:09:56;11.93;;;4.50;;
66342;SDS011;53144;51.524;5.080;2023-08-21T07:12:22;12.90;;;4.80;;
66342;SDS011;53144;51.524;5.080;2023-08-21T07:14:47;7.90;;;3.47;;
66342;SDS011;53144;51.524;5.080;2023-08-21T07:17:13;11.18;;;3.50;;
66342;SDS011;53144;51.524;5.080;2023-08-21T07:19:38;7.50;;;2.95;;
66342;SDS011;53144;51.524;5.080;2023-08-21T07:22:04;11.13;;;2.95;;
66342;SDS011;53144;51.524;5.080;2023-08-21T07:24:29;10.00;;;3.20;;
66342;SDS011;53144;51.524;5.080;2023-08-21T07:26:54;9.27;;;3.97;;
66342;SDS011;53144;51.524;5.080;2023-08-21T07:29:20;10.95;;;3.35;;
66342;SDS011;53144;51.524;5.080;2023-08-21T07:31:45;7.25;;;2.72;;
66342;SDS011;53144;51.524;5.080;2023-08-21T07:34:11;9.38;;;3.00;;
66342;SDS011;53144;51.524;5.080;2023-08-21T07:36:36;8.65;;;2.75;;
66342;SDS011;53144;51.524;5.080;2023-08-21T07:39:02;5.03;;;2.55;;
66342;SDS011;53144;51.524;5.080;2023-08-21T07:41:27;10.40;;;3.13;;
66342;SDS011;53144;51.524;5.080;2023-08-21T07:43:54;6.35;;;2.50;;
66342;SDS011;53144;51.524;5.080;2023-08-21T07:46:19;10.93;;;3.30;;
66342;SDS011;53144;51.524;5.080;2023-08-21T07:48:45;8.82;;;2.65;;
66342;SDS011;53144;51.524;5.080;2023-08-21T07:51:11;9.88;;;2.70;;
66342;SDS011;53144;51.524;5.080;2023-08-21T07:53:36;8.63;;;2.88;;
66342;SDS011;53144;51.524;5.080;2023-08-21T07:56:02;9.40;;;2.97;;
66342;SDS011;53144;51.524;5.080;2023-08-21T07:58:31;10.48;;;2.97;;
66342;SDS011;53144;51.524;5.080;2023-08-21T08:00:57;9.10;;;2.65;;
66342;SDS011;53144;51.524;5.080;2023-08-21T08:03:22;7.72;;;2.75;;
66342;SDS011;53144;51.524;5.080;2023-08-21T08:05:48;8.32;;;2.50;;
66342;SDS011;53144;51.524;5.080;2023-08-21T08:08:13;10.02;;;2.58;;
66342;SDS011;53144;51.524;5.080;2023-08-21T08:10:39;6.65;;;2.35;;
66342;SDS011;53144;51.524;5.080;2023-08-21T08:13:05;6.45;;;2.30;;
66342;SDS011;53144;51.524;5.080;2023-08-21T08:15:31;9.45;;;2.60;;
66342;SDS011;53144;51.524;5.080;2023-08-21T08:17:59;7.03;;;2.28;;
66342;SDS011;53144;51.524;5.080;2023-08-21T08:20:24;7.60;;;2.40;;
66342;SDS011;53144;51.524;5.080;2023-08-21T08:22:50;9.15;;;2.55;;
66342;SDS011;53144;51.524;5.080;2023-08-21T08:25:15;6.93;;;2.30;;
66342;SDS011;53144;51.524;5.080;2023-08-21T08:27:42;6.60;;;2.50;;
66342;SDS011;53144;51.524;5.080;2023-08-21T08:30:08;9.75;;;2.10;;
66342;SDS011;53144;51.524;5.080;2023-08-21T08:32:34;7.70;;;2.38;;
66342;SDS011;53144;51.524;5.080;2023-08-21T08:35:00;10.07;;;2.20;;
66342;SDS011;53144;51.524;5.080;2023-08-21T08:37:25;9.50;;;2.40;;
66342;SDS011;53144;51.524;5.080;2023-08-21T08:39:51;11.02;;;2.85;;
66342;SDS011;53144;51.524;5.080;2023-08-21T08:42:16;9.45;;;2.67;;
66342;SDS011;53144;51.524;5.080;2023-08-21T08:44:42;8.93;;;2.08;;
66342;SDS011;53144;51.524;5.080;2023-08-21T08:47:10;6.90;;;2.25;;
66342;SDS011;53144;51.524;5.080;2023-08-21T08:49:36;8.50;;;2.20;;
66342;SDS011;53144;51.524;5.080;2023-08-21T08:52:03;7.88;;;1.95;;
66342;SDS011;53144;51.524;5.080;2023-08-21T08:54:29;8.73;;;2.17;;
66342;SDS011;53144;51.524;5.080;2023-08-21T08:56:56;7.35;;;2.00;;
66342;SDS011;53144;51.524;5.080;2023-08-21T08:59:21;8.07;;;2.22;;
66342;SDS011;53144;51.524;5.080;2023-08-21T09:01:47;6.80;;;2.05;;
66342;SDS011;53144;51.524;5.080;2023-08-21T09:04:13;7.53;;;2.00;;
66342;SDS011;53144;51.524;5.080;2023-08-21T09:06:38;4.97;;;1.60;;
66342;SDS011;53144;51.524;5.080;2023-08-21T09:09:04;5.85;;;2.30;;
66342;SDS011;53144;51.524;5.080;2023-08-21T09:11:30;9.32;;;2.20;;
66342;SDS011;53144;51.524;5.080;2023-08-21T09:13:58;6.65;;;2.28;;
66342;SDS011;53144;51.524;5.080;2023-08-21T09:16:24;7.28;;;2.30;;
66342;SDS011;53144;51.524;5.080;2023-08-21T09:18:54;6.10;;;1.90;;
66342;SDS011;53144;51.524;5.080;2023-08-21T09:21:22;7.05;;;2.00;;
66342;SDS011;53144;51.524;5.080;2023-08-21T09:23:49;7.57;;;2.10;;
66342;SDS011;53144;51.524;5.080;2023-08-21T09:26:21;6.70;;;2.08;;
66342;SDS011;53144;51.524;5.080;2023-08-21T09:28:48;7.78;;;2.40;;
66342;SDS011;53144;51.524;5.080;2023-08-21T09:31:14;11.63;;;2.50;;
66342;SDS011;53144;51.524;5.080;2023-08-21T09:33:41;6.45;;;2.20;;
66342;SDS011;53144;51.524;5.080;2023-08-21T09:36:06;7.68;;;2.25;;
66342;SDS011;53144;51.524;5.080;2023-08-21T09:38:34;8.15;;;2.47;;
66342;SDS011;53144;51.524;5.080;2023-08-21T09:41:03;10.82;;;2.35;;
66342;SDS011;53144;51.524;5.080;2023-08-21T09:43:28;7.30;;;2.35;;
66342;SDS011;53144;51.524;5.080;2023-08-21T09:45:54;6.90;;;1.63;;
66342;SDS011;53144;51.524;5.080;2023-08-21T09:48:24;3.72;;;1.50;;
66342;SDS011;53144;51.524;5.080;2023-08-21T09:50:54;4.90;;;1.20;;
66342;SDS011;53144;51.524;5.080;2023-08-21T09:53:21;3.95;;;1.23;;
66342;SDS011;53144;51.524;5.080;2023-08-21T09:55:47;2.90;;;1.10;;
66342;SDS011;53144;51.524;5.080;2023-08-21T09:58:17;4.47;;;1.50;;
66342;SDS011;53144;51.524;5.080;2023-08-21T10:00:44;3.88;;;1.40;;
66342;SDS011;53144;51.524;5.080;2023-08-21T10:03:10;2.63;;;1.33;;
66342;SDS011;53144;51.524;5.080;2023-08-21T10:05:37;6.53;;;1.75;;
66342;SDS011;53144;51.524;5.080;2023-08-21T10:08:05;4.45;;;1.40;;
66342;SDS011;53144;51.524;5.080;2023-08-21T10:10:32;2.65;;;1.30;;
66342;SDS011;53144;51.524;5.080;2023-08-21T10:12:59;3.67;;;1.35;;
66342;SDS011;53144;51.524;5.080;2023-08-21T10:15:27;3.00;;;1.20;;
66342;SDS011;53144;51.524;5.080;2023-08-21T10:17:53;3.22;;;1.20;;
66342;SDS011;53144;51.524;5.080;2023-08-21T10:20:22;8.98;;;1.40;;
66342;SDS011;53144;51.524;5.080;2023-08-21T10:22:49;3.90;;;1.33;;
66342;SDS011;53144;51.524;5.080;2023-08-21T10:25:20;6.40;;;1.70;;
66342;SDS011;53144;51.524;5.080;2023-08-21T10:27:51;4.22;;;1.67;;
66342;SDS011;53144;51.524;5.080;2023-08-21T10:30:20;5.13;;;1.48;;
66342;SDS011;53144;51.524;5.080;2023-08-21T10:32:47;3.75;;;1.30;;
66342;SDS011;53144;51.524;5.080;2023-08-21T10:35:14;7.30;;;1.55;;
66342;SDS011;53144;51.524;5.080;2023-08-21T10:38:25;9.13;;;2.42;;
66342;SDS011;53144;51.524;5.080;2023-08-21T10:40:36;4.72;;;1.70;;
66342;SDS011;53144;51.524;5.080;2023-08-21T10:43:04;7.57;;;1.80;;
66342;SDS011;53144;51.524;5.080;2023-08-21T10:45:29;7.38;;;1.70;;
66342;SDS011;53144;51.524;5.080;2023-08-21T10:47:56;6.80;;;1.75;;
66342;SDS011;53144;51.524;5.080;2023-08-21T10:50:24;5.40;;;1.45;;
66342;SDS011;53144;51.524;5.080;2023-08-21T10:52:51;7.40;;;1.60;;
66342;SDS011;53144;51.524;5.080;2023-08-21T10:55:18;4.80;;;1.80;;
66342;SDS011;53144;51.524;5.080;2023-08-21T10:57:46;4.15;;;1.60;;
66342;SDS011;53144;51.524;5.080;2023-08-21T11:00:17;2.55;;;1.35;;
66342;SDS011;53144;51.524;5.080;2023-08-21T11:02:44;3.72;;;1.60;;
66342;SDS011;53144;51.524;5.080;2023-08-21T11:05:11;4.05;;;1.48;;
66342;SDS011;53144;51.524;5.080;2023-08-21T11:07:39;5.65;;;1.30;;
66342;SDS011;53144;51.524;5.080;2023-08-21T11:10:15;3.72;;;1.45;;
66342;SDS011;53144;51.524;5.080;2023-08-21T11:12:59;6.45;;;1.48;;
66342;SDS011;53144;51.524;5.080;2023-08-21T11:15:25;3.97;;;1.25;;
66342;SDS011;53144;51.524;5.080;2023-08-21T11:17:55;2.78;;;1.30;;
66342;SDS011;53144;51.524;5.080;2023-08-21T11:20:28;3.83;;;1.20;;
66342;SDS011;53144;51.524;5.080;2023-08-21T11:22:58;3.67;;;1.52;;
66342;SDS011;53144;51.524;5.080;2023-08-21T11:25:27;5.20;;;1.50;;
66342;SDS011;53144;51.524;5.080;2023-08-21T11:27:53;5.85;;;1.30;;
66342;SDS011;53144;51.524;5.080;2023-08-21T11:30:21;2.90;;;1.38;;
66342;SDS011;53144;51.524;5.080;2023-08-21T11:32:47;4.00;;;1.50;;
66342;SDS011;53144;51.524;5.080;2023-08-21T11:35:13;2.33;;;1.10;;
66342;SDS011;53144;51.524;5.080;2023-08-21T11:37:43;3.90;;;1.48;;
66342;SDS011;53144;51.524;5.080;2023-08-21T11:40:12;2.33;;;1.23;;
66342;SDS011;53144;51.524;5.080;2023-08-21T11:42:38;6.30;;;1.60;;
66342;SDS011;53144;51.524;5.080;2023-08-21T11:45:04;3.17;;;1.70;;
66342;SDS011;53144;51.524;5.080;2023-08-21T11:47:33;6.30;;;1.70;;
66342;SDS011;53144;51.524;5.080;2023-08-21T11:50:04;4.43;;;1.60;;
66342;SDS011;53144;51.524;5.080;2023-08-21T11:52:30;4.82;;;1.70;;
66342;SDS011;53144;51.524;5.080;2023-08-21T11:55:06;4.85;;;1.85;;
66342;SDS011;53144;51.524;5.080;2023-08-21T11:57:33;4.10;;;1.60;;
66342;SDS011;53144;51.524;5.080;2023-08-21T11:59:58;3.08;;;1.55;;
66342;SDS011;53144;51.524;5.080;2023-08-21T12:02:24;4.57;;;1.80;;
66342;SDS011;53144;51.524;5.080;2023-08-21T12:05:05;5.20;;;1.92;;
66342;SDS011;53144;51.524;5.080;2023-08-21T12:07:34;6.22;;;1.70;;
66342;SDS011;53144;51.524;5.080;2023-08-21T12:10:00;4.13;;;1.80;;
66342;SDS011;53144;51.524;5.080;2023-08-21T12:12:26;5.20;;;1.80;;
66342;SDS011;53144;51.524;5.080;2023-08-21T12:14:51;3.72;;;1.58;;
66342;SDS011;53144;51.524;5.080;2023-08-21T12:17:17;5.88;;;1.60;;
66342;SDS011;53144;51.524;5.080;2023-08-21T12:19:42;4.38;;;1.73;;
66342;SDS011;53144;51.524;5.080;2023-08-21T12:22:08;8.38;;;1.92;;
66342;SDS011;53144;51.524;5.080;2023-08-21T12:24:34;6.25;;;2.35;;
66342;SDS011;53144;51.524;5.080;2023-08-21T12:26:59;7.30;;;2.00;;
66342;SDS011;53144;51.524;5.080;2023-08-21T12:29:25;4.50;;;2.13;;
66342;SDS011;53144;51.524;5.080;2023-08-21T12:31:50;44.90;;;10.30;;
66342;SDS011;53144;51.524;5.080;2023-08-21T12:34:16;4.97;;;1.67;;
66342;SDS011;53144;51.524;5.080;2023-08-21T12:36:41;3.22;;;1.38;;
66342;SDS011;53144;51.524;5.080;2023-08-21T12:39:06;3.20;;;1.50;;
66342;SDS011;53144;51.524;5.080;2023-08-21T12:41:33;2.08;;;1.30;;
66342;SDS011;53144;51.524;5.080;2023-08-21T12:43:59;5.88;;;1.77;;
66342;SDS011;53144;51.524;5.080;2023-08-21T12:46:25;6.68;;;1.70;;
66342;SDS011;53144;51.524;5.080;2023-08-21T12:48:52;3.95;;;1.70;;
66342;SDS011;53144;51.524;5.080;2023-08-21T12:51:18;3.88;;;1.48;;
66342;SDS011;53144;51.524;5.080;2023-08-21T12:53:44;4.18;;;1.30;;
66342;SDS011;53144;51.524;5.080;2023-08-21T12:56:10;2.30;;;1.20;;
66342;SDS011;53144;51.524;5.080;2023-08-21T12:58:35;7.03;;;2.00;;
66342;SDS011;53144;51.524;5.080;2023-08-21T13:01:00;3.78;;;1.40;;
66342;SDS011;53144;51.524;5.080;2023-08-21T13:03:28;3.55;;;1.40;;
66342;SDS011;53144;51.524;5.080;2023-08-21T13:05:53;16.95;;;2.42;;
66342;SDS011;53144;51.524;5.080;2023-08-21T13:08:19;2.92;;;1.40;;
66342;SDS011;53144;51.524;5.080;2023-08-21T13:10:44;4.20;;;1.20;;
66342;SDS011;53144;51.524;5.080;2023-08-21T13:13:10;3.83;;;1.40;;
66342;SDS011;53144;51.524;5.080;2023-08-21T13:15:35;3.72;;;1.50;;
66342;SDS011;53144;51.524;5.080;2023-08-21T13:18:01;4.13;;;1.27;;
66342;SDS011;53144;51.524;5.080;2023-08-21T13:20:26;3.70;;;1.27;;
66342;SDS011;53144;51.524;5.080;2023-08-21T13:22:52;2.50;;;1.30;;
66342;SDS011;53144;51.524;5.080;2023-08-21T13:25:18;26.33;;;3.58;;
66342;SDS011;53144;51.524;5.080;2023-08-21T13:27:45;5.65;;;1.30;;
66342;SDS011;53144;51.524;5.080;2023-08-21T13:30:11;3.00;;;1.20;;
66342;SDS011;53144;51.524;5.080;2023-08-21T13:32:37;12.85;;;1.67;;
66342;SDS011;53144;51.524;5.080;2023-08-21T13:35:02;2.30;;;1.20;;
66342;SDS011;53144;51.524;5.080;2023-08-21T13:37:34;10.63;;;1.98;;
66342;SDS011;53144;51.524;5.080;2023-08-21T13:40:01;3.60;;;1.25;;
66342;SDS011;53144;51.524;5.080;2023-08-21T13:42:34;4.20;;;1.35;;
66342;SDS011;53144;51.524;5.080;2023-08-21T13:45:02;3.47;;;1.27;;
66342;SDS011;53144;51.524;5.080;2023-08-21T13:47:28;2.30;;;0.98;;
66342;SDS011;53144;51.524;5.080;2023-08-21T13:49:53;2.20;;;1.02;;
66342;SDS011;53144;51.524;5.080;2023-08-21T13:52:19;3.90;;;1.15;;
66342;SDS011;53144;51.524;5.080;2023-08-21T13:54:44;4.43;;;1.00;;
66342;SDS011;53144;51.524;5.080;2023-08-21T13:57:10;3.22;;;1.00;;
66342;SDS011;53144;51.524;5.080;2023-08-21T13:59:35;6.05;;;1.25;;
66342;SDS011;53144;51.524;5.080;2023-08-21T14:02:01;3.97;;;1.38;;
66342;SDS011;53144;51.524;5.080;2023-08-21T14:04:26;4.55;;;1.23;;
66342;SDS011;53144;51.524;5.080;2023-08-21T14:06:52;4.38;;;1.35;;
66342;SDS011;53144;51.524;5.080;2023-08-21T14:09:17;2.65;;;1.10;;
66342;SDS011;53144;51.524;5.080;2023-08-21T14:11:44;4.88;;;1.38;;
66342;SDS011;53144;51.524;5.080;2023-08-21T14:14:09;1.92;;;0.95;;
66342;SDS011;53144;51.524;5.080;2023-08-21T14:16:34;4.97;;;1.20;;
66342;SDS011;53144;51.524;5.080;2023-08-21T14:19:00;4.50;;;1.63;;
66342;SDS011;53144;51.524;5.080;2023-08-21T14:21:25;2.03;;;0.80;;
66342;SDS011;53144;51.524;5.080;2023-08-21T14:23:51;16.10;;;2.80;;
66342;SDS011;53144;51.524;5.080;2023-08-21T14:26:16;2.00;;;0.70;;
66342;SDS011;53144;51.524;5.080;2023-08-21T14:28:41;2.92;;;0.90;;
66342;SDS011;53144;51.524;5.080;2023-08-21T14:31:09;4.75;;;1.10;;
66342;SDS011;53144;51.524;5.080;2023-08-21T14:33:35;2.47;;;0.93;;
66342;SDS011;53144;51.524;5.080;2023-08-21T14:36:01;1.88;;;0.93;;
66342;SDS011;53144;51.524;5.080;2023-08-21T14:38:27;1.98;;;0.95;;
66342;SDS011;53144;51.524;5.080;2023-08-21T14:40:52;1.80;;;0.93;;
66342;SDS011;53144;51.524;5.080;2023-08-21T14:43:18;2.15;;;1.05;;